createdAt,value
2022-09-05T00:01:27.742Z,19.77
2022-09-05T00:04:24.037Z,19.76
2022-09-05T00:07:32.948Z,19.51
2022-09-05T00:10:16.689Z,19.54
2022-09-05T00:12:45.506Z,19.78
2022-09-05T00:15:21.524Z,19.60
2022-09-05T00:23:19.981Z,19.55
2022-09-05T00:24:25.767Z,19.72
2022-09-05T00:24:29.218Z,19.55
2022-09-05T00:26:50.661Z,19.59
2022-09-05T00:29:36.111Z,19.31
2022-09-05T00:32:31.126Z,19.26
2022-09-05T00:35:04.349Z,19.36
2022-09-05T00:37:34.598Z,19.37
2022-09-05T00:40:17.434Z,19.50
2022-09-05T00:42:48.078Z,19.78
2022-09-05T00:45:19.714Z,19.10
2022-09-05T00:48:05.685Z,18.99
2022-09-05T00:50:37.082Z,19.26
2022-09-05T00:53:07.860Z,19.18
2022-09-05T00:55:57.842Z,19.24
2022-09-05T00:58:38.725Z,19.19
2022-09-05T01:01:10.691Z,18.92
2022-09-05T01:04:12.148Z,19.31
2022-09-05T01:06:45.501Z,19.12
2022-09-05T01:09:18.944Z,19.21
2022-09-05T01:11:46.459Z,19.00
2022-09-05T01:14:37.454Z,19.08
2022-09-05T01:17:23.859Z,19.00
2022-09-05T01:20:19.243Z,19.04
2022-09-05T01:23:07.315Z,19.28
2022-09-05T01:25:55.529Z,19.47
2022-09-05T01:29:15.737Z,19.35
2022-09-05T01:31:11.159Z,18.99
2022-09-05T01:34:01.836Z,18.86
2022-09-05T01:36:47.585Z,18.98
2022-09-05T01:40:15.068Z,18.96
2022-09-05T01:42:37.245Z,18.93
2022-09-05T01:45:07.688Z,18.93
2022-09-05T01:47:40.709Z,18.79
2022-09-05T01:50:27.057Z,18.90
2022-09-05T01:53:09.521Z,18.88
2022-09-05T01:56:04.982Z,18.40
2022-09-05T01:58:40.716Z,18.81
2022-09-05T02:01:31.698Z,18.52
2022-09-05T02:04:09.470Z,18.58
2022-09-05T02:06:46.581Z,18.51
2022-09-05T02:09:32.946Z,18.90
2022-09-05T02:12:16.122Z,18.83
2022-09-05T02:14:44.619Z,18.77
2022-09-05T02:17:49.875Z,18.48
2022-09-05T02:20:23.731Z,18.68
2022-09-05T02:22:57.672Z,18.48
2022-09-05T02:26:02.906Z,18.63
2022-09-05T02:28:36.109Z,18.63
2022-09-05T02:31:20.227Z,18.43
2022-09-05T02:33:52.349Z,18.36
2022-09-05T02:36:38.625Z,18.73
2022-09-05T02:45:01.614Z,18.54
2022-09-05T02:45:19.431Z,18.76
2022-09-05T02:45:25.795Z,18.56
2022-09-05T02:47:56.561Z,18.12
2022-09-05T02:54:31.277Z,18.47
2022-09-05T02:57:38.560Z,18.44
2022-09-05T02:57:43.080Z,18.33
2022-09-05T02:59:18.301Z,18.64
2022-09-05T03:02:24.942Z,18.40
2022-09-05T03:04:53.330Z,18.29
2022-09-05T03:07:52.122Z,18.48
2022-09-05T03:10:28.245Z,18.34
2022-09-05T03:13:12.509Z,18.45
2022-09-05T03:15:55.528Z,18.51
2022-09-05T03:18:31.596Z,18.44
2022-09-05T03:21:09.591Z,18.49
2022-09-05T03:23:37.018Z,18.32
2022-09-05T03:26:23.549Z,18.21
2022-09-05T03:28:59.848Z,18.42
2022-09-05T03:31:33.115Z,18.49
2022-09-05T03:34:00.348Z,18.46
2022-09-05T03:36:31.098Z,18.33
2022-09-05T03:38:59.173Z,18.46
2022-09-05T03:41:42.907Z,18.46
2022-09-05T03:44:23.813Z,18.34
2022-09-05T03:46:50.939Z,18.50
2022-09-05T03:55:45.408Z,18.27
2022-09-05T03:57:11.315Z,18.38
2022-09-05T03:57:14.131Z,18.16
2022-09-05T03:58:55.812Z,18.04
2022-09-05T04:04:24.774Z,18.19
2022-09-05T04:08:08.281Z,18.28
2022-09-05T04:08:18.374Z,18.16
2022-09-05T04:10:26.795Z,18.06
2022-09-05T04:12:58.765Z,18.24
2022-09-05T04:15:41.088Z,18.22
2022-09-05T04:18:17.446Z,18.31
2022-09-05T04:20:56.751Z,18.24
2022-09-05T04:23:26.922Z,18.52
2022-09-05T04:26:11.491Z,18.43
2022-09-05T04:28:59.473Z,18.51
2022-09-05T04:31:26.988Z,18.35
2022-09-05T04:34:04.579Z,18.48
2022-09-05T04:36:35.160Z,18.35
2022-09-05T04:39:17.394Z,18.41
2022-09-05T04:41:50.159Z,18.25
2022-09-05T04:44:17.829Z,18.36
2022-09-05T04:46:49.189Z,18.40
2022-09-05T04:49:20.482Z,18.51
2022-09-05T04:52:00.140Z,18.22
2022-09-05T04:54:30.891Z,18.44
2022-09-05T04:57:18.569Z,18.55
2022-09-05T05:05:36.450Z,18.36
2022-09-05T05:06:10.313Z,18.55
2022-09-05T05:06:13.108Z,18.73
2022-09-05T05:08:40.737Z,18.67
2022-09-05T05:18:00.012Z,18.84
2022-09-05T05:18:06.249Z,18.83
2022-09-05T05:18:11.663Z,18.83
2022-09-05T05:20:42.454Z,18.88
2022-09-05T05:23:08.299Z,19.09
2022-09-05T05:25:47.217Z,19.14
2022-09-05T05:28:32.415Z,18.84
2022-09-05T05:31:08.596Z,19.17
2022-09-05T05:33:36.156Z,19.17
2022-09-05T05:36:07.412Z,19.29
2022-09-05T05:38:36.422Z,19.30
2022-09-05T05:41:12.765Z,19.44
2022-09-05T05:43:46.078Z,19.57
2022-09-05T05:46:34.462Z,19.61
2022-09-05T05:49:08.227Z,19.76
2022-09-05T05:52:01.319Z,19.79
2022-09-05T05:54:50.681Z,19.71
2022-09-05T05:57:19.331Z,19.75
2022-09-05T05:59:56.431Z,19.82
2022-09-05T06:02:46.969Z,19.92
2022-09-05T06:05:56.083Z,20.05
2022-09-05T06:11:02.281Z,20.19
2022-09-05T06:15:00.625Z,20.11
2022-09-05T06:15:02.808Z,20.36
2022-09-05T06:17:33.858Z,20.49
2022-09-05T06:21:12.767Z,20.60
2022-09-05T06:23:16.539Z,20.57
2022-09-05T06:25:57.673Z,20.70
2022-09-05T06:28:33.219Z,20.78
2022-09-05T06:31:29.901Z,21.05
2022-09-05T06:34:04.238Z,21.31
2022-09-05T06:36:32.231Z,21.55
2022-09-05T06:39:02.634Z,21.47
2022-09-05T06:41:30.098Z,21.50
2022-09-05T06:44:15.718Z,21.63
2022-09-05T06:47:05.766Z,21.60
2022-09-05T06:49:51.668Z,21.70
2022-09-05T06:52:32.414Z,21.78
2022-09-05T06:55:18.752Z,22.24
2022-09-05T06:57:55.227Z,22.44
2022-09-05T07:00:25.054Z,22.88
2022-09-05T07:03:00.002Z,23.19
2022-09-05T07:05:44.624Z,23.52
2022-09-05T07:08:35.947Z,23.75
2022-09-05T07:11:16.846Z,24.17
2022-09-05T07:14:27.843Z,24.62
2022-09-05T07:16:56.263Z,24.92
2022-09-05T07:19:29.473Z,25.46
2022-09-05T07:22:45.903Z,25.70
2022-09-05T07:25:08.667Z,25.89
2022-09-05T07:28:25.789Z,25.75
2022-09-05T07:30:33.199Z,26.15
2022-09-05T07:33:00.462Z,26.43
2022-09-05T07:35:29.375Z,26.19
2022-09-05T07:38:13.926Z,26.41
2022-09-05T07:40:41.793Z,26.79
2022-09-05T07:43:18.913Z,27.09
2022-09-05T07:45:56.240Z,26.88
2022-09-05T07:48:34.524Z,27.09
2022-09-05T07:56:48.066Z,27.40
2022-09-05T07:57:06.017Z,27.21
2022-09-05T07:59:41.405Z,27.73
2022-09-05T08:02:09.503Z,27.94
2022-09-05T08:04:39.353Z,27.99
2022-09-05T08:07:49.239Z,27.75
2022-09-05T08:10:09.739Z,28.15
2022-09-05T08:12:48.101Z,27.87
2022-09-05T08:15:27.350Z,28.10
2022-09-05T08:18:34.291Z,28.48
2022-09-05T08:21:06.445Z,28.66
2022-09-05T08:23:33.602Z,28.42
2022-09-05T08:26:13.455Z,28.82
2022-09-05T08:28:44.014Z,29.04
2022-09-05T08:31:12.711Z,28.76
2022-09-05T08:33:39.966Z,29.01
2022-09-05T08:36:26.219Z,29.16
2022-09-05T08:38:54.308Z,28.85
2022-09-05T08:41:50.045Z,28.80
2022-09-05T08:46:46.141Z,29.38
2022-09-05T08:47:25.294Z,28.93
2022-09-05T08:50:01.701Z,28.27
2022-09-05T08:52:38.923Z,28.47
2022-09-05T08:55:25.079Z,28.85
2022-09-05T08:57:58.789Z,29.03
2022-09-05T09:00:27.633Z,29.59
2022-09-05T09:03:12.971Z,29.51
2022-09-05T09:06:12.602Z,29.42
2022-09-05T09:08:53.226Z,29.36
2022-09-05T09:11:39.320Z,29.20
2022-09-05T09:14:30.142Z,29.22
2022-09-05T09:17:16.978Z,29.55
2022-09-05T09:19:53.190Z,29.10
2022-09-05T09:22:37.048Z,29.85
2022-09-05T09:25:15.698Z,29.55
2022-09-05T09:28:50.297Z,29.16
2022-09-05T09:30:37.105Z,29.55
2022-09-05T09:33:04.688Z,29.76
2022-09-05T09:35:52.853Z,29.76
2022-09-05T09:38:36.163Z,29.74
2022-09-05T09:41:18.672Z,29.80
2022-09-05T09:44:05.490Z,29.63
2022-09-05T09:46:39.093Z,29.98
2022-09-05T09:49:22.951Z,30.10
2022-09-05T09:52:20.752Z,29.85
2022-09-05T09:55:00.063Z,30.34
2022-09-05T09:57:36.418Z,30.01
2022-09-05T10:00:05.805Z,29.90
2022-09-05T10:05:18.277Z,29.79
2022-09-05T10:10:45.542Z,30.08
2022-09-05T10:10:54.671Z,29.61
2022-09-05T10:11:50.032Z,29.66
2022-09-05T10:14:33.876Z,30.09
2022-09-05T10:17:27.187Z,29.20
2022-09-05T10:20:12.961Z,29.35
2022-09-05T10:22:44.650Z,29.48
2022-09-05T10:25:33.916Z,29.12
2022-09-05T10:28:11.884Z,29.97
2022-09-05T10:32:16.323Z,29.38
2022-09-05T10:35:15.101Z,29.60
2022-09-05T10:36:24.795Z,29.83
2022-09-05T10:38:59.677Z,29.84
2022-09-05T10:41:39.762Z,30.03
2022-09-05T10:44:07.494Z,30.28
2022-09-05T10:46:50.751Z,30.28
2022-09-05T10:49:22.615Z,30.67
2022-09-05T10:51:54.651Z,30.59
2022-09-05T10:54:43.899Z,30.36
2022-09-05T10:57:20.544Z,30.17
2022-09-05T11:02:20.363Z,30.22
2022-09-05T11:02:57.961Z,30.59
2022-09-05T11:05:26.712Z,29.64
2022-09-05T11:07:59.374Z,30.35
2022-09-05T11:10:45.408Z,29.50
2022-09-05T11:13:27.893Z,28.91
2022-09-05T11:16:13.539Z,29.08
2022-09-05T11:18:54.976Z,29.45
2022-09-05T11:21:27.124Z,29.74
2022-09-05T11:23:57.142Z,29.80
2022-09-05T11:26:30.128Z,30.35
2022-09-05T11:29:00.437Z,30.51
2022-09-05T11:32:00.527Z,29.95
2022-09-05T11:39:45.769Z,30.28
2022-09-05T11:40:08.637Z,30.10
2022-09-05T11:40:28.929Z,29.19
2022-09-05T11:43:19.137Z,29.54
2022-09-05T11:45:58.443Z,29.36
2022-09-05T11:48:39.728Z,29.03
2022-09-05T11:51:34.144Z,29.03
2022-09-05T11:54:13.906Z,28.85
2022-09-05T11:57:00.786Z,28.95
2022-09-05T12:00:28.162Z,28.79
2022-09-05T12:02:49.632Z,28.80
2022-09-05T12:05:50.724Z,29.32
2022-09-05T12:08:56.228Z,28.63
2022-09-05T12:11:26.151Z,28.97
2022-09-05T12:14:20.967Z,29.14
2022-09-05T12:17:10.188Z,28.84
2022-09-05T12:19:52.193Z,28.84
2022-09-05T12:22:36.235Z,28.64
2022-09-05T12:25:25.840Z,28.54
2022-09-05T12:29:26.533Z,28.52
2022-09-05T12:32:36.716Z,28.67
2022-09-05T12:36:12.759Z,28.39
2022-09-05T12:40:44.684Z,28.28
2022-09-05T12:41:32.787Z,28.44
2022-09-05T12:42:40.165Z,28.27
2022-09-05T12:45:32.469Z,28.09
2022-09-05T12:48:08.523Z,28.16
2022-09-05T12:50:54.958Z,28.54
2022-09-05T12:53:22.939Z,28.63
2022-09-05T12:56:20.514Z,29.06
2022-09-05T13:03:04.204Z,29.28
2022-09-05T13:03:06.577Z,29.42
2022-09-05T13:04:31.113Z,29.05
2022-09-05T13:07:06.390Z,29.40
2022-09-05T13:11:05.089Z,29.03
2022-09-05T13:14:58.749Z,29.04
2022-09-05T13:15:39.434Z,29.38
2022-09-05T13:18:11.651Z,29.50
2022-09-05T13:20:45.734Z,29.74
2022-09-05T13:23:12.859Z,29.89
2022-09-05T13:25:41.456Z,29.73
2022-09-05T13:28:09.749Z,29.75
2022-09-05T13:34:14.785Z,29.79
2022-09-05T13:37:59.607Z,29.82
2022-09-05T13:38:15.466Z,30.04
2022-09-05T13:39:23.632Z,29.82
2022-09-05T13:41:52.120Z,29.94
2022-09-05T13:44:26.431Z,29.98
2022-09-05T13:46:58.481Z,29.99
2022-09-05T13:49:31.323Z,29.88
2022-09-05T13:52:32.035Z,30.13
2022-09-05T13:55:02.309Z,30.27
2022-09-05T13:57:34.967Z,30.05
2022-09-05T14:00:27.146Z,30.01
2022-09-05T14:05:59.101Z,29.45
2022-09-05T14:08:45.568Z,29.44
2022-09-05T14:11:19.506Z,29.04
2022-09-05T14:13:51.079Z,29.01
2022-09-05T14:16:20.482Z,29.26
2022-09-05T14:19:06.830Z,29.13
2022-09-05T14:21:36.857Z,29.08
2022-09-05T14:24:11.212Z,29.09
2022-09-05T14:26:40.666Z,29.26
2022-09-05T14:29:17.228Z,29.30
2022-09-05T14:37:43.232Z,29.58
2022-09-05T14:37:44.898Z,29.31
2022-09-05T14:38:10.035Z,29.38
2022-09-05T14:40:55.267Z,29.32
2022-09-05T14:43:47.510Z,29.26
2022-09-05T14:46:30.517Z,29.19
2022-09-05T14:49:10.859Z,29.34
2022-09-05T14:51:39.545Z,29.42
2022-09-05T14:54:11.823Z,29.48
2022-09-05T15:00:18.705Z,29.64
2022-09-05T15:02:50.753Z,29.23
2022-09-05T15:02:54.383Z,29.26
2022-09-05T15:05:28.368Z,29.41
2022-09-05T15:08:50.055Z,29.56
2022-09-05T15:12:20.125Z,29.35
2022-09-05T15:13:51.477Z,29.27
2022-09-05T15:16:19.463Z,29.39
2022-09-05T15:18:46.978Z,29.33
2022-09-05T15:21:33.678Z,29.36
2022-09-05T15:24:19.176Z,29.34
2022-09-05T15:27:06.295Z,29.34
2022-09-05T15:29:34.508Z,29.23
2022-09-05T15:32:12.803Z,29.41
2022-09-05T15:34:40.792Z,29.33
2022-09-05T15:37:25.690Z,29.13
2022-09-05T15:40:02.163Z,29.07
2022-09-05T15:42:30.835Z,29.15
2022-09-05T15:45:09.653Z,29.12
2022-09-05T15:47:38.855Z,29.17
2022-09-05T15:50:22.174Z,29.01
2022-09-05T15:52:52.719Z,28.99
2022-09-05T15:55:24.618Z,28.88
2022-09-05T15:57:58.215Z,29.15
2022-09-05T16:00:51.309Z,29.01
2022-09-05T16:04:47.808Z,29.05
2022-09-05T16:10:30.709Z,28.90
2022-09-05T16:10:49.484Z,28.98
2022-09-05T16:15:17.843Z,28.86
2022-09-05T16:23:18.081Z,28.74
2022-09-05T16:23:32.906Z,28.65
2022-09-05T16:23:40.436Z,28.55
2022-09-05T16:26:24.852Z,28.52
2022-09-05T16:29:00.201Z,28.42
2022-09-05T16:31:30.739Z,28.35
2022-09-05T16:33:57.981Z,28.42
2022-09-05T16:36:29.743Z,28.45
2022-09-05T16:38:59.423Z,28.26
2022-09-05T16:41:45.216Z,28.16
2022-09-05T16:44:24.977Z,28.26
2022-09-05T16:47:07.299Z,28.25
2022-09-05T16:49:43.040Z,28.27
2022-09-05T16:52:13.498Z,28.20
2022-09-05T16:54:47.886Z,28.07
2022-09-05T16:57:15.015Z,27.94
2022-09-05T16:59:43.841Z,27.87
2022-09-05T17:02:12.376Z,27.73
2022-09-05T17:05:03.228Z,27.69
2022-09-05T17:07:36.124Z,27.65
2022-09-05T17:10:11.410Z,27.54
2022-09-05T17:12:38.892Z,27.46
2022-09-05T17:15:29.565Z,27.32
2022-09-05T17:18:21.938Z,27.29
2022-09-05T17:20:47.370Z,27.20
2022-09-05T17:29:17.570Z,26.98
2022-09-05T17:29:26.024Z,26.63
2022-09-05T17:29:26.613Z,26.80
2022-09-05T17:32:01.791Z,26.46
2022-09-05T17:34:41.927Z,26.19
2022-09-05T17:37:21.722Z,26.17
2022-09-05T17:39:49.185Z,26.21
2022-09-05T17:42:20.128Z,26.04
2022-09-05T17:44:48.616Z,26.05
2022-09-05T17:47:24.313Z,25.85
2022-09-05T17:50:10.097Z,25.76
2022-09-05T17:53:26.291Z,25.66
2022-09-05T17:55:55.018Z,25.56
2022-09-05T17:58:39.921Z,25.38
2022-09-05T18:01:17.067Z,25.28
2022-09-05T18:03:45.899Z,25.21
2022-09-05T18:06:16.279Z,25.18
2022-09-05T18:08:46.451Z,25.16
2022-09-05T18:11:25.320Z,25.14
2022-09-05T18:14:02.042Z,25.16
2022-09-05T18:17:36.672Z,25.27
2022-09-05T18:19:45.885Z,25.02
2022-09-05T18:22:25.295Z,24.93
2022-09-05T18:25:27.775Z,24.73
2022-09-05T18:28:04.979Z,24.96
2022-09-05T18:33:53.272Z,24.65
2022-09-05T18:35:57.745Z,24.65
2022-09-05T18:38:50.315Z,24.80
2022-09-05T18:41:19.168Z,24.67
2022-09-05T18:44:12.024Z,24.62
2022-09-05T18:46:42.656Z,24.64
2022-09-05T18:50:21.632Z,24.54
2022-09-05T18:52:22.108Z,24.47
2022-09-05T18:56:09.626Z,24.40
2022-09-05T18:57:57.828Z,24.29
2022-09-05T19:00:46.847Z,23.99
2022-09-05T19:03:19.764Z,23.97
2022-09-05T19:05:59.236Z,23.88
2022-09-05T19:08:48.941Z,24.11
2022-09-05T19:11:28.048Z,23.91
2022-09-05T19:14:14.262Z,24.00
2022-09-05T19:16:48.166Z,23.99
2022-09-05T19:19:17.264Z,23.84
2022-09-05T19:22:16.209Z,23.76
2022-09-05T19:24:46.300Z,23.53
2022-09-05T19:28:57.086Z,23.70
2022-09-05T19:36:50.326Z,23.46
2022-09-05T19:36:51.696Z,23.72
2022-09-05T19:37:09.041Z,23.64
2022-09-05T19:41:27.066Z,23.40
2022-09-05T19:47:27.182Z,23.41
2022-09-05T19:47:45.332Z,23.40
2022-09-05T19:48:04.030Z,23.28
2022-09-05T19:50:21.633Z,23.28
2022-09-05T19:52:53.536Z,23.43
2022-09-05T19:55:22.906Z,23.17
2022-09-05T19:58:20.153Z,22.90
2022-09-05T20:01:00.841Z,22.95
2022-09-05T20:03:38.816Z,22.76
2022-09-05T20:06:30.053Z,23.00
2022-09-05T20:09:17.337Z,22.79
2022-09-05T20:11:51.623Z,22.86
2022-09-05T20:14:30.623Z,22.95
2022-09-05T20:17:16.793Z,22.93
2022-09-05T20:19:44.470Z,23.05
2022-09-05T20:22:47.013Z,22.98
2022-09-05T20:25:03.171Z,23.03
2022-09-05T20:27:30.851Z,22.77
2022-09-05T20:30:02.634Z,22.93
2022-09-05T20:32:39.327Z,22.87
2022-09-05T20:40:17.916Z,22.65
2022-09-05T20:43:09.709Z,22.87
2022-09-05T20:43:17.034Z,22.95
2022-09-05T20:44:05.749Z,23.17
2022-09-05T20:50:35.695Z,23.06
2022-09-05T20:54:06.802Z,23.01
2022-09-05T20:54:28.652Z,23.05
2022-09-05T20:54:56.481Z,23.01
2022-09-05T20:57:30.321Z,23.04
2022-09-05T21:00:06.037Z,22.91
2022-09-05T21:02:33.551Z,22.66
2022-09-05T21:05:20.109Z,22.82
2022-09-05T21:07:51.212Z,22.80
2022-09-05T21:10:36.829Z,22.82
2022-09-05T21:13:23.443Z,23.08
2022-09-05T21:15:52.793Z,23.10
2022-09-05T21:18:22.607Z,23.02
2022-09-05T21:20:56.953Z,23.05
2022-09-05T21:23:28.134Z,22.69
2022-09-05T21:25:56.155Z,22.67
2022-09-05T21:28:37.318Z,22.94
2022-09-05T21:31:10.564Z,22.94
2022-09-05T21:33:45.775Z,22.93
2022-09-05T21:36:14.297Z,22.88
2022-09-05T21:38:41.881Z,22.87
2022-09-05T21:41:09.167Z,22.77
2022-09-05T21:47:38.331Z,22.44
2022-09-05T21:47:42.443Z,22.54
2022-09-05T21:49:15.336Z,22.61
2022-09-05T21:51:48.215Z,22.52
2022-09-05T21:57:40.437Z,22.39
2022-09-05T21:59:29.034Z,22.47
2022-09-05T21:59:57.857Z,22.45
2022-09-05T22:02:32.884Z,22.39
2022-09-05T22:05:03.058Z,22.11
2022-09-05T22:07:31.654Z,22.11
2022-09-05T22:10:03.376Z,22.31
2022-09-05T22:12:38.733Z,22.15
2022-09-05T22:15:26.685Z,22.22
2022-09-05T22:18:11.755Z,22.21
2022-09-05T22:20:43.663Z,22.21
2022-09-05T22:23:11.321Z,22.33
2022-09-05T22:25:38.549Z,22.21
2022-09-05T22:28:27.369Z,22.09
2022-09-05T22:31:07.294Z,21.98
2022-09-05T22:33:36.086Z,22.13
2022-09-05T22:36:03.819Z,22.00
2022-09-05T22:38:31.051Z,22.09
2022-09-05T22:40:58.826Z,21.99
2022-09-05T22:43:26.086Z,22.07
2022-09-05T22:45:56.522Z,22.00
2022-09-05T22:48:24.117Z,22.00
2022-09-05T22:50:52.220Z,21.91
2022-09-05T22:53:19.453Z,22.00
2022-09-05T22:55:47.065Z,22.03
2022-09-05T22:58:14.718Z,21.83
2022-09-05T23:00:42.548Z,21.83
2022-09-05T23:03:10.073Z,21.96
2022-09-05T23:05:37.230Z,22.04
2022-09-05T23:08:04.803Z,22.10
2022-09-05T23:10:32.392Z,22.17
2022-09-05T23:13:02.728Z,21.94
2022-09-05T23:15:29.948Z,21.87
2022-09-05T23:17:58.646Z,21.87
2022-09-05T23:20:27.003Z,22.04
2022-09-05T23:22:57.519Z,21.82
2022-09-05T23:25:25.085Z,22.03
2022-09-05T23:27:52.311Z,21.83
2022-09-05T23:30:19.581Z,21.93
2022-09-05T23:32:47.747Z,22.05
2022-09-05T23:35:15.202Z,21.77
2022-09-05T23:37:45.897Z,21.89
2022-09-05T23:40:14.312Z,21.79
2022-09-05T23:42:41.527Z,21.92
2022-09-05T23:45:09.255Z,21.81
2022-09-05T23:47:36.977Z,21.86
2022-09-05T23:50:04.662Z,21.54
2022-09-05T23:52:31.894Z,21.69
2022-09-05T23:54:59.779Z,21.83
2022-09-05T23:57:27.116Z,21.72
2022-09-05T23:59:54.418Z,21.64
